sensor_id;sensor_type;location;lat;lon;timestamp;P1;durP1;ratioP1;P2;durP2;ratioP2
13075;SDS011;6604;52.484;13.330;2023-03-01T07:48:59;16.40;;;8.73;;
13075;SDS011;6604;52.484;13.330;2023-03-01T07:51:26;16.30;;;10.30;;
13075;SDS011;6604;52.484;13.330;2023-03-01T07:53:52;18.10;;;10.07;;
13075;SDS011;6604;52.484;13.330;2023-03-01T07:56:19;18.77;;;10.20;;
13075;SDS011;6604;52.484;13.330;2023-03-01T07:58:47;16.20;;;9.93;;
13075;SDS011;6604;52.484;13.330;2023-03-01T08:01:15;15.53;;;9.20;;
13075;SDS011;6604;52.484;13.330;2023-03-01T08:03:43;18.93;;;9.30;;
13075;SDS011;6604;52.484;13.330;2023-03-01T08:06:11;16.70;;;9.67;;
13075;SDS011;6604;52.484;13.330;2023-03-01T08:08:38;16.93;;;9.43;;
13075;SDS011;6604;52.484;13.330;2023-03-01T08:11:05;19.47;;;9.33;;
13075;SDS011;6604;52.484;13.330;2023-03-01T08:13:32;15.63;;;9.80;;
13075;SDS011;6604;52.484;13.330;2023-03-01T08:16:03;18.03;;;9.63;;
13075;SDS011;6604;52.484;13.330;2023-03-01T08:18:29;14.93;;;8.93;;
13075;SDS011;6604;52.484;13.330;2023-03-01T08:21:00;18.60;;;9.33;;
13075;SDS011;6604;52.484;13.330;2023-03-01T08:23:28;17.30;;;8.90;;
13075;SDS011;6604;52.484;13.330;2023-03-01T08:26:02;12.20;;;6.70;;
13075;SDS011;6604;52.484;13.330;2023-03-01T08:28:29;13.17;;;6.57;;
13075;SDS011;6604;52.484;13.330;2023-03-01T08:30:57;17.23;;;7.87;;
13075;SDS011;6604;52.484;13.330;2023-03-01T08:33:24;15.10;;;7.40;;
13075;SDS011;6604;52.484;13.330;2023-03-01T08:35:51;9.17;;;5.70;;
13075;SDS011;6604;52.484;13.330;2023-03-01T08:38:17;6.80;;;4.97;;
13075;SDS011;6604;52.484;13.330;2023-03-01T08:40:48;10.67;;;5.37;;
13075;SDS011;6604;52.484;13.330;2023-03-01T08:43:15;8.37;;;4.87;;
13075;SDS011;6604;52.484;13.330;2023-03-01T08:45:44;9.13;;;4.30;;
13075;SDS011;6604;52.484;13.330;2023-03-01T08:48:11;6.33;;;3.93;;
13075;SDS011;6604;52.484;13.330;2023-03-01T08:50:37;8.60;;;4.50;;
13075;SDS011;6604;52.484;13.330;2023-03-01T08:53:04;7.43;;;3.63;;
13075;SDS011;6604;52.484;13.330;2023-03-01T08:55:31;8.80;;;4.10;;
13075;SDS011;6604;52.484;13.330;2023-03-01T08:57:59;6.60;;;3.57;;
13075;SDS011;6604;52.484;13.330;2023-03-01T09:00:25;5.37;;;3.93;;
13075;SDS011;6604;52.484;13.330;2023-03-01T09:02:53;6.90;;;3.47;;
13075;SDS011;6604;52.484;13.330;2023-03-01T09:05:19;6.83;;;3.30;;
13075;SDS011;6604;52.484;13.330;2023-03-01T09:07:46;6.20;;;3.37;;
13075;SDS011;6604;52.484;13.330;2023-03-01T09:10:12;5.97;;;3.83;;
13075;SDS011;6604;52.484;13.330;2023-03-01T09:12:39;9.77;;;3.50;;
13075;SDS011;6604;52.484;13.330;2023-03-01T09:15:08;6.37;;;3.57;;
13075;SDS011;6604;52.484;13.330;2023-03-01T09:17:34;5.20;;;3.33;;
13075;SDS011;6604;52.484;13.330;2023-03-01T09:20:01;6.37;;;3.67;;
13075;SDS011;6604;52.484;13.330;2023-03-01T09:22:30;5.33;;;3.57;;
13075;SDS011;6604;52.484;13.330;2023-03-01T09:24:57;7.37;;;3.97;;
13075;SDS011;6604;52.484;13.330;2023-03-01T09:27:25;5.60;;;3.87;;
13075;SDS011;6604;52.484;13.330;2023-03-01T09:29:55;7.47;;;4.17;;
13075;SDS011;6604;52.484;13.330;2023-03-01T09:32:23;5.23;;;3.40;;
13075;SDS011;6604;52.484;13.330;2023-03-01T09:34:52;7.87;;;4.07;;
13075;SDS011;6604;52.484;13.330;2023-03-01T09:37:30;5.47;;;3.53;;
13075;SDS011;6604;52.484;13.330;2023-03-01T09:39:56;6.90;;;3.40;;
13075;SDS011;6604;52.484;13.330;2023-03-01T09:42:23;6.07;;;3.60;;
13075;SDS011;6604;52.484;13.330;2023-03-01T09:44:53;5.70;;;3.53;;
13075;SDS011;6604;52.484;13.330;2023-03-01T09:47:24;5.70;;;3.43;;
13075;SDS011;6604;52.484;13.330;2023-03-01T09:49:54;4.77;;;3.27;;
13075;SDS011;6604;52.484;13.330;2023-03-01T09:52:26;5.10;;;3.63;;
13075;SDS011;6604;52.484;13.330;2023-03-01T09:54:55;7.67;;;3.70;;
13075;SDS011;6604;52.484;13.330;2023-03-01T09:57:26;6.47;;;3.20;;
13075;SDS011;6604;52.484;13.330;2023-03-01T09:59:58;6.73;;;3.50;;
13075;SDS011;6604;52.484;13.330;2023-03-01T10:02:32;6.33;;;4.03;;
13075;SDS011;6604;52.484;13.330;2023-03-01T10:05:05;5.50;;;3.63;;
13075;SDS011;6604;52.484;13.330;2023-03-01T10:07:37;6.43;;;3.37;;
13075;SDS011;6604;52.484;13.330;2023-03-01T10:10:05;7.23;;;3.70;;
13075;SDS011;6604;52.484;13.330;2023-03-01T10:12:33;5.53;;;3.30;;
13075;SDS011;6604;52.484;13.330;2023-03-01T10:15:02;7.73;;;3.67;;
13075;SDS011;6604;52.484;13.330;2023-03-01T10:17:32;6.03;;;3.60;;
13075;SDS011;6604;52.484;13.330;2023-03-01T10:20:10;10.80;;;3.40;;
13075;SDS011;6604;52.484;13.330;2023-03-01T10:22:42;6.87;;;3.23;;
13075;SDS011;6604;52.484;13.330;2023-03-01T10:25:13;8.27;;;3.40;;
13075;SDS011;6604;52.484;13.330;2023-03-01T10:27:42;8.17;;;3.60;;
13075;SDS011;6604;52.484;13.330;2023-03-01T10:30:12;5.00;;;2.97;;
13075;SDS011;6604;52.484;13.330;2023-03-01T10:32:42;8.83;;;3.57;;
13075;SDS011;6604;52.484;13.330;2023-03-01T10:35:16;7.77;;;3.40;;
13075;SDS011;6604;52.484;13.330;2023-03-01T10:37:56;8.20;;;3.70;;
13075;SDS011;6604;52.484;13.330;2023-03-01T10:40:23;5.20;;;3.27;;
13075;SDS011;6604;52.484;13.330;2023-03-01T10:42:50;8.83;;;3.40;;
13075;SDS011;6604;52.484;13.330;2023-03-01T10:45:19;8.23;;;3.90;;
13075;SDS011;6604;52.484;13.330;2023-03-01T10:47:57;8.60;;;4.07;;
13075;SDS011;6604;52.484;13.330;2023-03-01T10:50:29;9.40;;;4.50;;
13075;SDS011;6604;52.484;13.330;2023-03-01T10:52:56;7.97;;;3.80;;
13075;SDS011;6604;52.484;13.330;2023-03-01T10:55:26;7.60;;;4.10;;
13075;SDS011;6604;52.484;13.330;2023-03-01T10:58:06;7.53;;;4.60;;
13075;SDS011;6604;52.484;13.330;2023-03-01T11:00:33;7.37;;;4.30;;
13075;SDS011;6604;52.484;13.330;2023-03-01T11:03:13;8.00;;;4.00;;
13075;SDS011;6604;52.484;13.330;2023-03-01T11:05:54;7.97;;;3.90;;
13075;SDS011;6604;52.484;13.330;2023-03-01T11:08:30;12.23;;;5.00;;
13075;SDS011;6604;52.484;13.330;2023-03-01T11:11:13;8.40;;;4.67;;
13075;SDS011;6604;52.484;13.330;2023-03-01T11:13:47;7.20;;;4.53;;
13075;SDS011;6604;52.484;13.330;2023-03-01T11:16:16;12.37;;;4.77;;
13075;SDS011;6604;52.484;13.330;2023-03-01T11:24:29;5.80;;;4.60;;
13075;SDS011;6604;52.484;13.330;2023-03-01T11:26:57;9.10;;;4.77;;
13075;SDS011;6604;52.484;13.330;2023-03-01T11:29:29;10.87;;;5.10;;
13075;SDS011;6604;52.484;13.330;2023-03-01T11:31:58;8.17;;;4.60;;
13075;SDS011;6604;52.484;13.330;2023-03-01T11:34:35;8.67;;;4.57;;
13075;SDS011;6604;52.484;13.330;2023-03-01T11:37:03;6.30;;;4.47;;
13075;SDS011;6604;52.484;13.330;2023-03-01T11:39:37;7.80;;;4.20;;
13075;SDS011;6604;52.484;13.330;2023-03-01T11:42:06;8.03;;;4.50;;
13075;SDS011;6604;52.484;13.330;2023-03-01T11:44:35;6.30;;;4.07;;
13075;SDS011;6604;52.484;13.330;2023-03-01T11:49:50;8.80;;;4.10;;
13075;SDS011;6604;52.484;13.330;2023-03-01T11:52:22;5.60;;;2.90;;
13075;SDS011;6604;52.484;13.330;2023-03-01T11:54:57;7.20;;;3.07;;
13075;SDS011;6604;52.484;13.330;2023-03-01T11:57:30;5.57;;;2.87;;
13075;SDS011;6604;52.484;13.330;2023-03-01T12:00:11;5.50;;;2.83;;
13075;SDS011;6604;52.484;13.330;2023-03-01T12:05:29;5.07;;;2.47;;
13075;SDS011;6604;52.484;13.330;2023-03-01T12:08:04;3.43;;;2.30;;
13075;SDS011;6604;52.484;13.330;2023-03-01T12:10:35;3.37;;;2.30;;
13075;SDS011;6604;52.484;13.330;2023-03-01T12:15:54;4.67;;;2.60;;
13075;SDS011;6604;52.484;13.330;2023-03-01T12:18:31;6.60;;;3.10;;
13075;SDS011;6604;52.484;13.330;2023-03-01T12:21:02;8.33;;;2.87;;
13075;SDS011;6604;52.484;13.330;2023-03-01T12:23:37;4.63;;;2.40;;
13075;SDS011;6604;52.484;13.330;2023-03-01T12:26:09;4.80;;;2.90;;
13075;SDS011;6604;52.484;13.330;2023-03-01T12:28:49;4.10;;;2.70;;
13075;SDS011;6604;52.484;13.330;2023-03-01T12:34:03;3.93;;;2.23;;
13075;SDS011;6604;52.484;13.330;2023-03-01T12:39:22;6.83;;;2.53;;
13075;SDS011;6604;52.484;13.330;2023-03-01T12:41:53;4.97;;;2.60;;
13075;SDS011;6604;52.484;13.330;2023-03-01T12:44:25;3.40;;;2.20;;
13075;SDS011;6604;52.484;13.330;2023-03-01T12:46:58;4.33;;;2.30;;
13075;SDS011;6604;52.484;13.330;2023-03-01T12:49:31;4.97;;;2.20;;
13075;SDS011;6604;52.484;13.330;2023-03-01T12:52:00;3.17;;;2.57;;
13075;SDS011;6604;52.484;13.330;2023-03-01T12:54:29;5.33;;;2.47;;
13075;SDS011;6604;52.484;13.330;2023-03-01T12:56:59;5.00;;;3.10;;
13075;SDS011;6604;52.484;13.330;2023-03-01T12:59:29;5.17;;;2.70;;
13075;SDS011;6604;52.484;13.330;2023-03-01T13:02:02;7.77;;;3.23;;
13075;SDS011;6604;52.484;13.330;2023-03-01T13:04:33;6.20;;;2.67;;
13075;SDS011;6604;52.484;13.330;2023-03-01T13:07:05;7.00;;;2.20;;
13075;SDS011;6604;52.484;13.330;2023-03-01T13:09:34;3.20;;;2.37;;
13075;SDS011;6604;52.484;13.330;2023-03-01T13:14:50;4.60;;;2.67;;
13075;SDS011;6604;52.484;13.330;2023-03-01T13:17:33;3.30;;;2.00;;
13075;SDS011;6604;52.484;13.330;2023-03-01T13:20:11;2.33;;;1.83;;
13075;SDS011;6604;52.484;13.330;2023-03-01T13:22:38;4.17;;;2.20;;
13075;SDS011;6604;52.484;13.330;2023-03-01T13:25:12;3.77;;;2.03;;
13075;SDS011;6604;52.484;13.330;2023-03-01T13:27:40;4.53;;;2.77;;
13075;SDS011;6604;52.484;13.330;2023-03-01T13:30:37;6.87;;;2.27;;
13075;SDS011;6604;52.484;13.330;2023-03-01T13:35:52;3.93;;;2.10;;
13075;SDS011;6604;52.484;13.330;2023-03-01T13:38:38;7.30;;;2.70;;
13075;SDS011;6604;52.484;13.330;2023-03-01T13:41:06;3.70;;;2.00;;
13075;SDS011;6604;52.484;13.330;2023-03-01T13:43:34;4.03;;;2.43;;
13075;SDS011;6604;52.484;13.330;2023-03-01T13:46:07;2.57;;;1.87;;
13075;SDS011;6604;52.484;13.330;2023-03-01T13:48:34;3.40;;;2.30;;
13075;SDS011;6604;52.484;13.330;2023-03-01T13:51:01;5.10;;;2.30;;
13075;SDS011;6604;52.484;13.330;2023-03-01T13:53:29;3.93;;;2.40;;
13075;SDS011;6604;52.484;13.330;2023-03-01T13:55:58;4.03;;;2.60;;
13075;SDS011;6604;52.484;13.330;2023-03-01T13:58:27;3.77;;;2.63;;
13075;SDS011;6604;52.484;13.330;2023-03-01T14:00:56;4.30;;;2.17;;
13075;SDS011;6604;52.484;13.330;2023-03-01T14:03:23;5.20;;;2.17;;
13075;SDS011;6604;52.484;13.330;2023-03-01T14:06:01;3.63;;;2.60;;
13075;SDS011;6604;52.484;13.330;2023-03-01T14:08:29;5.33;;;2.70;;
13075;SDS011;6604;52.484;13.330;2023-03-01T14:13:42;4.43;;;2.20;;
13075;SDS011;6604;52.484;13.330;2023-03-01T14:16:19;3.90;;;2.17;;
13075;SDS011;6604;52.484;13.330;2023-03-01T14:18:52;5.10;;;2.10;;
13075;SDS011;6604;52.484;13.330;2023-03-01T14:21:23;3.13;;;2.43;;
13075;SDS011;6604;52.484;13.330;2023-03-01T14:23:51;3.37;;;2.10;;
13075;SDS011;6604;52.484;13.330;2023-03-01T14:26:19;3.93;;;2.20;;
13075;SDS011;6604;52.484;13.330;2023-03-01T14:28:47;5.87;;;2.20;;
13075;SDS011;6604;52.484;13.330;2023-03-01T14:34:06;3.37;;;2.23;;
13075;SDS011;6604;52.484;13.330;2023-03-01T14:36:33;4.50;;;2.20;;
13075;SDS011;6604;52.484;13.330;2023-03-01T14:39:00;3.13;;;1.90;;
13075;SDS011;6604;52.484;13.330;2023-03-01T14:41:31;5.33;;;2.20;;
13075;SDS011;6604;52.484;13.330;2023-03-01T14:43:59;2.53;;;1.80;;
13075;SDS011;6604;52.484;13.330;2023-03-01T14:46:28;3.07;;;1.70;;
13075;SDS011;6604;52.484;13.330;2023-03-01T14:48:57;6.47;;;1.90;;
13075;SDS011;6604;52.484;13.330;2023-03-01T14:51:26;2.27;;;1.70;;
13075;SDS011;6604;52.484;13.330;2023-03-01T14:53:53;2.60;;;1.70;;
13075;SDS011;6604;52.484;13.330;2023-03-01T14:56:19;4.77;;;1.60;;
13075;SDS011;6604;52.484;13.330;2023-03-01T14:58:46;3.27;;;1.60;;
13075;SDS011;6604;52.484;13.330;2023-03-01T15:01:17;3.43;;;1.60;;
13075;SDS011;6604;52.484;13.330;2023-03-01T15:03:45;3.00;;;1.90;;
13075;SDS011;6604;52.484;13.330;2023-03-01T15:06:14;3.10;;;2.00;;
13075;SDS011;6604;52.484;13.330;2023-03-01T15:08:44;4.00;;;1.80;;
13075;SDS011;6604;52.484;13.330;2023-03-01T15:11:17;3.30;;;1.90;;
13075;SDS011;6604;52.484;13.330;2023-03-01T15:13:47;3.63;;;2.00;;
13075;SDS011;6604;52.484;13.330;2023-03-01T15:16:14;2.13;;;1.53;;
13075;SDS011;6604;52.484;13.330;2023-03-01T15:18:43;2.47;;;2.00;;
13075;SDS011;6604;52.484;13.330;2023-03-01T15:21:15;2.93;;;1.93;;
13075;SDS011;6604;52.484;13.330;2023-03-01T15:23:47;4.23;;;2.50;;
13075;SDS011;6604;52.484;13.330;2023-03-01T15:26:24;4.93;;;3.50;;
13075;SDS011;6604;52.484;13.330;2023-03-01T15:28:52;4.93;;;2.37;;
13075;SDS011;6604;52.484;13.330;2023-03-01T15:31:19;5.87;;;2.00;;
13075;SDS011;6604;52.484;13.330;2023-03-01T15:33:47;3.87;;;2.00;;
13075;SDS011;6604;52.484;13.330;2023-03-01T15:39:03;6.67;;;2.23;;
13075;SDS011;6604;52.484;13.330;2023-03-01T15:41:33;6.77;;;2.27;;
13075;SDS011;6604;52.484;13.330;2023-03-01T15:44:14;3.10;;;2.10;;
13075;SDS011;6604;52.484;13.330;2023-03-01T15:46:44;3.90;;;1.80;;
13075;SDS011;6604;52.484;13.330;2023-03-01T15:49:20;3.97;;;2.10;;
13075;SDS011;6604;52.484;13.330;2023-03-01T15:51:51;4.70;;;2.07;;
13075;SDS011;6604;52.484;13.330;2023-03-01T15:54:22;4.10;;;2.07;;
13075;SDS011;6604;52.484;13.330;2023-03-01T15:56:49;4.30;;;1.90;;
13075;SDS011;6604;52.484;13.330;2023-03-01T15:59:16;2.50;;;1.73;;
13075;SDS011;6604;52.484;13.330;2023-03-01T16:01:44;3.00;;;2.03;;
13075;SDS011;6604;52.484;13.330;2023-03-01T16:04:10;3.40;;;1.80;;
13075;SDS011;6604;52.484;13.330;2023-03-01T16:06:38;4.17;;;2.17;;
13075;SDS011;6604;52.484;13.330;2023-03-01T16:09:05;3.57;;;2.50;;
13075;SDS011;6604;52.484;13.330;2023-03-01T16:11:35;2.77;;;2.10;;
13075;SDS011;6604;52.484;13.330;2023-03-01T16:14:02;2.90;;;2.37;;
13075;SDS011;6604;52.484;13.330;2023-03-01T16:16:29;3.03;;;1.87;;
13075;SDS011;6604;52.484;13.330;2023-03-01T16:18:55;2.53;;;1.90;;
13075;SDS011;6604;52.484;13.330;2023-03-01T16:21:22;4.50;;;2.30;;
13075;SDS011;6604;52.484;13.330;2023-03-01T16:23:49;3.37;;;2.00;;
13075;SDS011;6604;52.484;13.330;2023-03-01T16:26:17;3.07;;;2.43;;
13075;SDS011;6604;52.484;13.330;2023-03-01T16:28:45;5.83;;;2.43;;
13075;SDS011;6604;52.484;13.330;2023-03-01T16:31:15;4.37;;;2.70;;
13075;SDS011;6604;52.484;13.330;2023-03-01T16:33:43;4.07;;;2.47;;
13075;SDS011;6604;52.484;13.330;2023-03-01T16:36:14;3.67;;;2.23;;
13075;SDS011;6604;52.484;13.330;2023-03-01T16:38:41;6.67;;;2.63;;
13075;SDS011;6604;52.484;13.330;2023-03-01T16:41:09;3.90;;;2.37;;
13075;SDS011;6604;52.484;13.330;2023-03-01T16:43:37;3.63;;;2.27;;
13075;SDS011;6604;52.484;13.330;2023-03-01T16:46:10;6.30;;;3.17;;
13075;SDS011;6604;52.484;13.330;2023-03-01T16:48:37;7.13;;;4.00;;
13075;SDS011;6604;52.484;13.330;2023-03-01T16:51:04;7.07;;;3.00;;
13075;SDS011;6604;52.484;13.330;2023-03-01T16:53:31;3.83;;;2.80;;
13075;SDS011;6604;52.484;13.330;2023-03-01T16:55:58;4.67;;;2.70;;
13075;SDS011;6604;52.484;13.330;2023-03-01T16:58:26;5.00;;;3.07;;
13075;SDS011;6604;52.484;13.330;2023-03-01T17:00:53;4.67;;;2.67;;
13075;SDS011;6604;52.484;13.330;2023-03-01T17:03:22;3.97;;;2.80;;
13075;SDS011;6604;52.484;13.330;2023-03-01T17:05:48;4.63;;;2.83;;
13075;SDS011;6604;52.484;13.330;2023-03-01T17:08:15;5.27;;;2.63;;
13075;SDS011;6604;52.484;13.330;2023-03-01T17:10:42;4.93;;;3.27;;
13075;SDS011;6604;52.484;13.330;2023-03-01T17:13:09;10.27;;;4.17;;
13075;SDS011;6604;52.484;13.330;2023-03-01T17:15:37;8.10;;;3.43;;
13075;SDS011;6604;52.484;13.330;2023-03-01T17:18:06;8.07;;;3.67;;
13075;SDS011;6604;52.484;13.330;2023-03-01T17:20:35;15.83;;;8.97;;
13075;SDS011;6604;52.484;13.330;2023-03-01T17:23:02;16.47;;;9.43;;
13075;SDS011;6604;52.484;13.330;2023-03-01T17:25:28;11.87;;;6.07;;
13075;SDS011;6604;52.484;13.330;2023-03-01T17:27:55;7.77;;;4.70;;
13075;SDS011;6604;52.484;13.330;2023-03-01T17:30:24;7.13;;;4.20;;
13075;SDS011;6604;52.484;13.330;2023-03-01T17:32:51;8.63;;;3.57;;
13075;SDS011;6604;52.484;13.330;2023-03-01T17:35:20;6.07;;;3.43;;
13075;SDS011;6604;52.484;13.330;2023-03-01T17:37:48;8.30;;;3.57;;
13075;SDS011;6604;52.484;13.330;2023-03-01T17:40:14;9.23;;;3.97;;
13075;SDS011;6604;52.484;13.330;2023-03-01T17:42:41;7.37;;;3.27;;
13075;SDS011;6604;52.484;13.330;2023-03-01T17:45:08;39.07;;;19.37;;
13075;SDS011;6604;52.484;13.330;2023-03-01T17:47:35;23.47;;;11.37;;
13075;SDS011;6604;52.484;13.330;2023-03-01T17:50:02;16.47;;;6.00;;
13075;SDS011;6604;52.484;13.330;2023-03-01T17:52:32;13.67;;;7.23;;
13075;SDS011;6604;52.484;13.330;2023-03-01T17:55:03;11.30;;;5.47;;
13075;SDS011;6604;52.484;13.330;2023-03-01T17:57:29;9.07;;;4.33;;
13075;SDS011;6604;52.484;13.330;2023-03-01T17:59:56;8.77;;;3.90;;
13075;SDS011;6604;52.484;13.330;2023-03-01T18:02:23;8.37;;;3.67;;
13075;SDS011;6604;52.484;13.330;2023-03-01T18:04:50;7.13;;;3.50;;
13075;SDS011;6604;52.484;13.330;2023-03-01T18:07:17;5.23;;;3.53;;
13075;SDS011;6604;52.484;13.330;2023-03-01T18:09:44;5.97;;;3.40;;
13075;SDS011;6604;52.484;13.330;2023-03-01T18:12:12;6.63;;;3.50;;
13075;SDS011;6604;52.484;13.330;2023-03-01T18:14:39;4.60;;;3.37;;
13075;SDS011;6604;52.484;13.330;2023-03-01T18:17:05;6.33;;;3.60;;
13075;SDS011;6604;52.484;13.330;2023-03-01T18:19:35;8.70;;;4.20;;
13075;SDS011;6604;52.484;13.330;2023-03-01T18:22:02;11.40;;;4.80;;
13075;SDS011;6604;52.484;13.330;2023-03-01T18:24:29;8.67;;;4.43;;
13075;SDS011;6604;52.484;13.330;2023-03-01T18:26:55;13.77;;;4.77;;
13075;SDS011;6604;52.484;13.330;2023-03-01T18:29:23;12.93;;;5.20;;
13075;SDS011;6604;52.484;13.330;2023-03-01T18:31:50;10.37;;;5.13;;
13075;SDS011;6604;52.484;13.330;2023-03-01T18:34:17;12.63;;;5.17;;
13075;SDS011;6604;52.484;13.330;2023-03-01T18:36:44;9.67;;;5.20;;
13075;SDS011;6604;52.484;13.330;2023-03-01T18:39:11;8.33;;;4.27;;
13075;SDS011;6604;52.484;13.330;2023-03-01T18:41:39;6.07;;;4.10;;
13075;SDS011;6604;52.484;13.330;2023-03-01T18:44:05;8.27;;;4.50;;
13075;SDS011;6604;52.484;13.330;2023-03-01T18:46:37;10.13;;;4.73;;
13075;SDS011;6604;52.484;13.330;2023-03-01T18:49:05;11.93;;;5.23;;
13075;SDS011;6604;52.484;13.330;2023-03-01T18:51:31;10.03;;;4.80;;
13075;SDS011;6604;52.484;13.330;2023-03-01T18:53:59;7.77;;;3.50;;
13075;SDS011;6604;52.484;13.330;2023-03-01T18:56:27;8.60;;;4.63;;
13075;SDS011;6604;52.484;13.330;2023-03-01T18:58:53;8.10;;;3.87;;
13075;SDS011;6604;52.484;13.330;2023-03-01T19:01:21;8.57;;;3.83;;
13075;SDS011;6604;52.484;13.330;2023-03-01T19:03:50;8.23;;;4.00;;
13075;SDS011;6604;52.484;13.330;2023-03-01T19:06:17;8.03;;;4.23;;
13075;SDS011;6604;52.484;13.330;2023-03-01T19:08:44;6.83;;;4.40;;
13075;SDS011;6604;52.484;13.330;2023-03-01T19:11:11;8.33;;;4.10;;
13075;SDS011;6604;52.484;13.330;2023-03-01T19:13:39;8.87;;;4.43;;
13075;SDS011;6604;52.484;13.330;2023-03-01T19:16:06;17.63;;;5.27;;
13075;SDS011;6604;52.484;13.330;2023-03-01T19:18:33;12.30;;;5.20;;
13075;SDS011;6604;52.484;13.330;2023-03-01T19:21:03;12.60;;;4.93;;
13075;SDS011;6604;52.484;13.330;2023-03-01T19:23:30;10.97;;;4.80;;
13075;SDS011;6604;52.484;13.330;2023-03-01T19:25:59;10.43;;;5.13;;
13075;SDS011;6604;52.484;13.330;2023-03-01T19:28:26;10.40;;;5.17;;
13075;SDS011;6604;52.484;13.330;2023-03-01T19:30:56;14.57;;;5.47;;
13075;SDS011;6604;52.484;13.330;2023-03-01T19:33:24;11.73;;;5.23;;
13075;SDS011;6604;52.484;13.330;2023-03-01T19:35:51;14.17;;;5.47;;
13075;SDS011;6604;52.484;13.330;2023-03-01T19:38:19;10.07;;;4.87;;
13075;SDS011;6604;52.484;13.330;2023-03-01T19:40:46;7.37;;;4.10;;
13075;SDS011;6604;52.484;13.330;2023-03-01T19:43:13;11.00;;;4.47;;
13075;SDS011;6604;52.484;13.330;2023-03-01T19:45:40;12.30;;;4.80;;
13075;SDS011;6604;52.484;13.330;2023-03-01T19:48:06;9.30;;;4.80;;
13075;SDS011;6604;52.484;13.330;2023-03-01T19:50:33;9.40;;;4.67;;
13075;SDS011;6604;52.484;13.330;2023-03-01T19:53:02;12.67;;;4.30;;
13075;SDS011;6604;52.484;13.330;2023-03-01T19:55:29;8.57;;;4.93;;
13075;SDS011;6604;52.484;13.330;2023-03-01T19:57:56;10.47;;;5.13;;
13075;SDS011;6604;52.484;13.330;2023-03-01T20:00:23;9.37;;;4.70;;
13075;SDS011;6604;52.484;13.330;2023-03-01T20:02:49;8.93;;;4.77;;
13075;SDS011;6604;52.484;13.330;2023-03-01T20:05:16;11.47;;;5.20;;
13075;SDS011;6604;52.484;13.330;2023-03-01T20:07:43;10.47;;;5.27;;
13075;SDS011;6604;52.484;13.330;2023-03-01T20:10:10;14.47;;;5.23;;
13075;SDS011;6604;52.484;13.330;2023-03-01T20:12:42;11.30;;;5.57;;
13075;SDS011;6604;52.484;13.330;2023-03-01T20:15:22;13.03;;;6.00;;
13075;SDS011;6604;52.484;13.330;2023-03-01T20:17:49;12.83;;;5.57;;
13075;SDS011;6604;52.484;13.330;2023-03-01T20:20:17;15.57;;;5.67;;
13075;SDS011;6604;52.484;13.330;2023-03-01T20:22:44;10.10;;;5.47;;
13075;SDS011;6604;52.484;13.330;2023-03-01T20:25:11;9.30;;;5.30;;
13075;SDS011;6604;52.484;13.330;2023-03-01T20:27:39;14.63;;;6.13;;
13075;SDS011;6604;52.484;13.330;2023-03-01T20:30:06;13.40;;;5.20;;
13075;SDS011;6604;52.484;13.330;2023-03-01T20:32:33;14.80;;;5.10;;
13075;SDS011;6604;52.484;13.330;2023-03-01T20:34:59;9.17;;;5.93;;
13075;SDS011;6604;52.484;13.330;2023-03-01T20:37:27;21.57;;;5.53;;
13075;SDS011;6604;52.484;13.330;2023-03-01T20:39:53;13.23;;;6.03;;
13075;SDS011;6604;52.484;13.330;2023-03-01T20:42:20;12.57;;;5.83;;
13075;SDS011;6604;52.484;13.330;2023-03-01T20:44:48;10.70;;;5.80;;
13075;SDS011;6604;52.484;13.330;2023-03-01T20:47:14;10.93;;;5.60;;
13075;SDS011;6604;52.484;13.330;2023-03-01T20:49:45;22.23;;;7.40;;
13075;SDS011;6604;52.484;13.330;2023-03-01T20:52:11;15.50;;;6.27;;
13075;SDS011;6604;52.484;13.330;2023-03-01T20:54:38;12.57;;;5.77;;
13075;SDS011;6604;52.484;13.330;2023-03-01T20:57:05;16.23;;;6.23;;
13075;SDS011;6604;52.484;13.330;2023-03-01T20:59:33;13.13;;;5.73;;
13075;SDS011;6604;52.484;13.330;2023-03-01T21:02:01;14.77;;;6.10;;
13075;SDS011;6604;52.484;13.330;2023-03-01T21:04:28;12.37;;;6.13;;
13075;SDS011;6604;52.484;13.330;2023-03-01T21:06:55;13.30;;;5.67;;
13075;SDS011;6604;52.484;13.330;2023-03-01T21:09:21;11.07;;;5.60;;
13075;SDS011;6604;52.484;13.330;2023-03-01T21:11:48;15.23;;;6.00;;
13075;SDS011;6604;52.484;13.330;2023-03-01T21:14:14;14.07;;;6.17;;
13075;SDS011;6604;52.484;13.330;2023-03-01T21:16:41;12.27;;;6.33;;
13075;SDS011;6604;52.484;13.330;2023-03-01T21:19:11;17.67;;;6.77;;
13075;SDS011;6604;52.484;13.330;2023-03-01T21:21:39;12.60;;;5.97;;
13075;SDS011;6604;52.484;13.330;2023-03-01T21:24:06;12.67;;;5.90;;
13075;SDS011;6604;52.484;13.330;2023-03-01T21:26:35;13.90;;;6.27;;
13075;SDS011;6604;52.484;13.330;2023-03-01T21:29:02;18.13;;;6.87;;
13075;SDS011;6604;52.484;13.330;2023-03-01T21:31:31;17.53;;;6.30;;
13075;SDS011;6604;52.484;13.330;2023-03-01T21:33:59;14.43;;;6.73;;
13075;SDS011;6604;52.484;13.330;2023-03-01T21:36:29;13.20;;;6.83;;
13075;SDS011;6604;52.484;13.330;2023-03-01T21:38:58;15.17;;;7.60;;
13075;SDS011;6604;52.484;13.330;2023-03-01T21:41:26;74.30;;;30.40;;
13075;SDS011;6604;52.484;13.330;2023-03-01T21:43:53;16.07;;;7.17;;
13075;SDS011;6604;52.484;13.330;2023-03-01T21:46:22;17.60;;;7.17;;
13075;SDS011;6604;52.484;13.330;2023-03-01T21:48:49;18.90;;;8.10;;
13075;SDS011;6604;52.484;13.330;2023-03-01T21:51:17;12.97;;;7.33;;
13075;SDS011;6604;52.484;13.330;2023-03-01T21:53:46;18.07;;;8.13;;
13075;SDS011;6604;52.484;13.330;2023-03-01T21:56:18;16.10;;;7.30;;
13075;SDS011;6604;52.484;13.330;2023-03-01T21:58:44;19.93;;;7.80;;
13075;SDS011;6604;52.484;13.330;2023-03-01T22:01:12;17.03;;;7.23;;
13075;SDS011;6604;52.484;13.330;2023-03-01T22:03:39;15.50;;;7.50;;
13075;SDS011;6604;52.484;13.330;2023-03-01T22:06:10;15.80;;;7.40;;
13075;SDS011;6604;52.484;13.330;2023-03-01T22:08:42;13.80;;;6.97;;
13075;SDS011;6604;52.484;13.330;2023-03-01T22:11:10;14.50;;;7.80;;
13075;SDS011;6604;52.484;13.330;2023-03-01T22:13:37;21.33;;;7.30;;
13075;SDS011;6604;52.484;13.330;2023-03-01T22:16:04;15.23;;;7.47;;
13075;SDS011;6604;52.484;13.330;2023-03-01T22:18:31;18.77;;;7.63;;
13075;SDS011;6604;52.484;13.330;2023-03-01T22:21:01;14.17;;;7.37;;
13075;SDS011;6604;52.484;13.330;2023-03-01T22:23:28;17.20;;;7.20;;
13075;SDS011;6604;52.484;13.330;2023-03-01T22:25:54;18.30;;;7.17;;
13075;SDS011;6604;52.484;13.330;2023-03-01T22:28:22;18.63;;;7.90;;
